Time;durP1;ratioP1;P1;durP2;ratioP2;P2;SDS_P1;SDS_P2;PMS_P1;PMS_P2;Temp;Humidity;BMP_temperature;BMP_pressure;BME280_temperature;BME280_humidity;BME280_pressure;Samples;Min_cycle;Max_cycle;Signal;HPM_P1;HPM_P2
2021/06/18 00:00:08;;;;;;;5.30;4.80;;;;;;;;;;5052608;28;20459;-66
2021/06/18 00:02:35;;;;;;;4.50;4.10;;;;;;;;;;5053053;28;20480;-66
2021/06/18 00:05:02;;;;;;;5.00;4.57;;;;;;;;;;5052478;28;20448;-65
2021/06/18 00:07:31;;;;;;;4.20;3.90;;;;;;;;;;5052263;28;20451;-67
2021/06/18 00:09:58;;;;;;;6.83;3.87;;;;;;;;;;5052532;28;20451;-65
2021/06/18 00:12:25;;;;;;;7.03;4.47;;;;;;;;;;5052609;28;20547;-66
2021/06/18 00:14:52;;;;;;;4.60;4.20;;;;;;;;;;5052751;28;20458;-66
2021/06/18 00:17:19;;;;;;;4.43;4.03;;;;;;;;;;5051967;28;20942;-66
2021/06/18 00:19:46;;;;;;;6.00;4.73;;;;;;;;;;5052136;28;20462;-66
2021/06/18 00:22:13;;;;;;;5.07;4.50;;;;;;;;;;5032602;28;20488;-66
2021/06/18 00:24:42;;;;;;;6.20;4.43;;;;;;;;;;5032700;28;20456;-65
2021/06/18 00:27:09;;;;;;;4.90;4.27;;;;;;;;;;5031332;28;20456;-65
2021/06/18 00:29:36;;;;;;;4.50;4.17;;;;;;;;;;5032517;28;20444;-66
2021/06/18 00:32:03;;;;;;;4.93;4.43;;;;;;;;;;5032262;28;20831;-66
2021/06/18 00:34:30;;;;;;;5.10;4.33;;;;;;;;;;5051113;28;20452;-66
2021/06/18 00:36:58;;;;;;;4.43;4.03;;;;;;;;;;5051680;28;20451;-66
2021/06/18 00:39:25;;;;;;;5.03;4.53;;;;;;;;;;5052162;28;20448;-66
2021/06/18 00:41:53;;;;;;;4.40;4.00;;;;;;;;;;5052294;28;20470;-66
2021/06/18 00:44:20;;;;;;;5.27;4.80;;;;;;;;;;5052282;28;20448;-65
2021/06/18 00:46:47;;;;;;;4.80;4.40;;;;;;;;;;5051512;28;20443;-67
2021/06/18 00:49:15;;;;;;;5.37;4.90;;;;;;;;;;5051767;28;20462;-65
2021/06/18 00:51:42;;;;;;;4.87;4.23;;;;;;;;;;5051595;28;20476;-66
2021/06/18 00:54:10;;;;;;;5.10;4.57;;;;;;;;;;5052029;28;20456;-66
2021/06/18 00:56:38;;;;;;;5.23;4.83;;;;;;;;;;5051337;28;20459;-66
2021/06/18 00:59:07;;;;;;;6.27;5.67;;;;;;;;;;5052039;28;20452;-65
2021/06/18 01:01:34;;;;;;;4.87;4.47;;;;;;;;;;5052162;28;20470;-66
2021/06/18 01:04:01;;;;;;;4.90;4.50;;;;;;;;;;5050916;28;20489;-65
2021/06/18 01:06:30;;;;;;;5.60;5.07;;;;;;;;;;5050869;28;20444;-65
2021/06/18 01:09:01;;;;;;;4.30;4.00;;;;;;;;;;5051731;28;20448;-66
2021/06/18 01:11:31;;;;;;;4.53;4.07;;;;;;;;;;5051963;28;20460;-65
2021/06/18 01:14:01;;;;;;;4.97;4.53;;;;;;;;;;5051884;28;20455;-65
2021/06/18 01:16:34;;;;;;;5.47;5.00;;;;;;;;;;5051330;28;20439;-65
2021/06/18 01:19:03;;;;;;;4.70;4.30;;;;;;;;;;5050878;28;20432;-65
2021/06/18 01:21:33;;;;;;;5.17;4.37;;;;;;;;;;5051862;28;20504;-66
2021/06/18 01:24:04;;;;;;;7.07;5.00;;;;;;;;;;5051249;28;20856;-65
2021/06/18 01:26:55;;;;;;;5.00;4.60;;;;;;;;;;5050769;28;20454;-65
2021/06/18 01:29:24;;;;;;;5.67;4.80;;;;;;;;;;5040915;28;20900;-65
2021/06/18 01:31:52;;;;;;;5.17;4.77;;;;;;;;;;5051806;28;20582;-66
2021/06/18 01:34:21;;;;;;;5.90;5.00;;;;;;;;;;5051713;28;20450;-66
2021/06/18 01:36:49;;;;;;;5.83;5.27;;;;;;;;;;5050860;28;20444;-65
2021/06/18 01:39:17;;;;;;;8.00;4.97;;;;;;;;;;5051327;28;20458;-66
2021/06/18 01:41:45;;;;;;;5.33;4.70;;;;;;;;;;5051009;28;20474;-66
2021/06/18 01:44:13;;;;;;;5.03;4.50;;;;;;;;;;5051858;28;20838;-66
2021/06/18 01:46:43;;;;;;;5.73;4.93;;;;;;;;;;5050186;28;20825;-66
2021/06/18 01:49:10;;;;;;;5.63;5.00;;;;;;;;;;5034791;28;20823;-65
2021/06/18 01:51:38;;;;;;;4.90;4.50;;;;;;;;;;5034420;28;20562;-66
2021/06/18 01:54:07;;;;;;;5.40;5.00;;;;;;;;;;5048020;28;20820;-66
2021/06/18 01:56:35;;;;;;;5.40;5.00;;;;;;;;;;5050832;28;20455;-65
2021/06/18 01:59:03;;;;;;;5.60;5.13;;;;;;;;;;5051636;28;20451;-66
2021/06/18 02:01:32;;;;;;;5.27;4.87;;;;;;;;;;5051242;28;20827;-66
2021/06/18 02:04:01;;;;;;;5.30;4.80;;;;;;;;;;5051226;28;20491;-66
2021/06/18 02:06:29;;;;;;;5.00;4.60;;;;;;;;;;5050507;28;20443;-66
2021/06/18 02:08:58;;;;;;;6.83;5.50;;;;;;;;;;5050238;28;20444;-66
2021/06/18 02:11:27;;;;;;;6.57;5.60;;;;;;;;;;5051073;28;20491;-66
2021/06/18 02:13:55;;;;;;;5.40;4.90;;;;;;;;;;5051042;28;20446;-66
2021/06/18 02:16:25;;;;;;;6.00;5.30;;;;;;;;;;5035834;28;20463;-66
2021/06/18 02:18:53;;;;;;;6.57;5.30;;;;;;;;;;5037208;28;20450;-65
2021/06/18 02:21:21;;;;;;;7.30;5.73;;;;;;;;;;5055180;28;20463;-66
2021/06/18 02:23:49;;;;;;;6.47;5.13;;;;;;;;;;5054392;28;20830;-65
2021/06/18 02:26:17;;;;;;;5.80;5.30;;;;;;;;;;5054283;28;20448;-66
2021/06/18 02:28:44;;;;;;;8.33;5.30;;;;;;;;;;5054994;28;20462;-67
2021/06/18 02:31:13;;;;;;;6.13;5.63;;;;;;;;;;5055131;28;20498;-65
2021/06/18 02:33:40;;;;;;;5.43;5.03;;;;;;;;;;5054995;28;20469;-66
2021/06/18 02:36:07;;;;;;;5.63;5.13;;;;;;;;;;5053783;28;20477;-65
2021/06/18 02:38:35;;;;;;;5.43;4.93;;;;;;;;;;5052965;28;20444;-66
2021/06/18 02:41:03;;;;;;;6.40;5.80;;;;;;;;;;5054496;28;20464;-66
2021/06/18 02:43:30;;;;;;;4.87;4.47;;;;;;;;;;5054530;28;20483;-66
2021/06/18 02:45:57;;;;;;;7.13;5.17;;;;;;;;;;5054033;28;20444;-65
2021/06/18 02:48:26;;;;;;;5.70;5.20;;;;;;;;;;5054180;28;20935;-66
2021/06/18 02:50:57;;;;;;;5.73;5.33;;;;;;;;;;5053806;28;20482;-66
2021/06/18 02:53:27;;;;;;;5.27;4.70;;;;;;;;;;5053822;28;20447;-66
2021/06/18 02:55:59;;;;;;;5.53;5.03;;;;;;;;;;5053670;28;20993;-65
2021/06/18 02:58:27;;;;;;;5.77;5.33;;;;;;;;;;5054463;28;20444;-66
2021/06/18 03:00:54;;;;;;;6.00;5.40;;;;;;;;;;5053382;28;20478;-65
2021/06/18 03:03:23;;;;;;;5.97;5.47;;;;;;;;;;5034065;28;20488;-66
2021/06/18 03:05:51;;;;;;;5.20;4.80;;;;;;;;;;5033873;28;20455;-66
2021/06/18 03:08:21;;;;;;;5.50;4.93;;;;;;;;;;5045310;28;20471;-66
2021/06/18 03:10:50;;;;;;;5.27;4.87;;;;;;;;;;5053536;28;20486;-65
2021/06/18 03:13:20;;;;;;;8.83;5.83;;;;;;;;;;5053755;28;20440;-66
2021/06/18 03:15:48;;;;;;;6.37;5.23;;;;;;;;;;5053471;28;20444;-66
2021/06/18 03:18:16;;;;;;;4.87;4.57;;;;;;;;;;5053460;28;20459;-65
2021/06/18 03:20:44;;;;;;;7.63;5.17;;;;;;;;;;5053772;28;20477;-65
2021/06/18 03:23:13;;;;;;;5.93;5.43;;;;;;;;;;5046078;28;20487;-66
2021/06/18 03:25:41;;;;;;;5.87;5.37;;;;;;;;;;5049269;28;20451;-65
2021/06/18 03:28:09;;;;;;;6.37;5.87;;;;;;;;;;5053431;28;20943;-65
2021/06/18 03:30:38;;;;;;;6.00;5.50;;;;;;;;;;5052711;28;20463;-65
2021/06/18 03:33:06;;;;;;;7.60;6.77;;;;;;;;;;5053449;28;20452;-66
2021/06/18 03:35:33;;;;;;;5.83;5.33;;;;;;;;;;5052997;28;20464;-66
2021/06/18 03:38:01;;;;;;;6.27;5.67;;;;;;;;;;5053545;28;20455;-65
2021/06/18 03:40:28;;;;;;;5.97;5.40;;;;;;;;;;5053523;28;20472;-66
2021/06/18 03:42:56;;;;;;;6.80;6.00;;;;;;;;;;5053081;28;21065;-65
2021/06/18 03:45:23;;;;;;;6.93;6.00;;;;;;;;;;5052333;28;20447;-65
2021/06/18 03:47:52;;;;;;;5.50;5.10;;;;;;;;;;5052607;28;20448;-65
2021/06/18 03:50:20;;;;;;;6.00;5.17;;;;;;;;;;5042172;28;20449;-66
2021/06/18 03:52:47;;;;;;;6.53;5.90;;;;;;;;;;5033433;28;20444;-65
2021/06/18 03:55:15;;;;;;;6.27;5.70;;;;;;;;;;5051433;28;20534;-66
2021/06/18 03:57:43;;;;;;;5.67;5.17;;;;;;;;;;5053228;28;20448;-66
2021/06/18 04:00:11;;;;;;;6.10;5.60;;;;;;;;;;5053064;28;20460;-66
2021/06/18 04:02:38;;;;;;;5.80;5.30;;;;;;;;;;5053473;28;20452;-65
2021/06/18 04:05:07;;;;;;;5.90;5.27;;;;;;;;;;5052510;28;20486;-66
2021/06/18 04:07:35;;;;;;;7.80;6.70;;;;;;;;;;5052542;28;20450;-66
2021/06/18 04:10:02;;;;;;;6.90;5.83;;;;;;;;;;5052801;28;20939;-66
2021/06/18 04:12:29;;;;;;;6.07;5.57;;;;;;;;;;5053037;28;20459;-66
2021/06/18 04:14:57;;;;;;;6.33;5.70;;;;;;;;;;5052992;28;20450;-66
2021/06/18 04:17:24;;;;;;;8.10;6.33;;;;;;;;;;5051815;28;20452;-65
2021/06/18 04:19:52;;;;;;;7.53;6.00;;;;;;;;;;5052125;28;20463;-67
2021/06/18 04:22:28;;;;;;;6.53;6.03;;;;;;;;;;5042853;28;20476;-66
2021/06/18 04:24:56;;;;;;;7.00;5.90;;;;;;;;;;5036992;28;20468;-67
2021/06/18 04:27:23;;;;;;;6.50;5.60;;;;;;;;;;5051677;28;20455;-66
2021/06/18 04:29:50;;;;;;;7.70;6.00;;;;;;;;;;5052566;28;20452;-66
2021/06/18 04:32:17;;;;;;;6.20;5.70;;;;;;;;;;5052578;28;20475;-66
2021/06/18 04:34:44;;;;;;;6.90;6.30;;;;;;;;;;5051735;28;20966;-66
2021/06/18 04:37:12;;;;;;;6.70;6.10;;;;;;;;;;5051615;28;20456;-66
2021/06/18 04:39:41;;;;;;;7.40;6.80;;;;;;;;;;5051569;28;20452;-66
2021/06/18 04:42:08;;;;;;;9.17;6.63;;;;;;;;;;5051074;28;20468;-65
2021/06/18 04:44:35;;;;;;;6.50;6.00;;;;;;;;;;5049984;28;20559;-66
2021/06/18 04:47:03;;;;;;;6.73;6.13;;;;;;;;;;5051834;28;20448;-66
2021/06/18 04:49:30;;;;;;;6.27;5.70;;;;;;;;;;5051955;28;20535;-66
2021/06/18 04:51:57;;;;;;;7.80;6.27;;;;;;;;;;5062447;22;20508;-63
2021/06/18 04:54:24;;;;;;;6.80;6.30;;;;;;;;;;5079115;28;20833;-62
2021/06/18 04:56:53;;;;;;;9.10;6.13;;;;;;;;;;5088161;28;20970;-62
2021/06/18 04:59:20;;;;;;;7.77;6.37;;;;;;;;;;5091861;28;20457;-62
2021/06/18 05:01:47;;;;;;;6.23;5.70;;;;;;;;;;5076290;28;20447;-62
2021/06/18 05:04:14;;;;;;;6.33;5.83;;;;;;;;;;5091497;28;20489;-62
2021/06/18 05:06:42;;;;;;;6.10;5.60;;;;;;;;;;5091561;28;20452;-63
2021/06/18 05:09:09;;;;;;;6.30;5.70;;;;;;;;;;5100307;28;20445;-62
2021/06/18 05:11:36;;;;;;;6.40;5.90;;;;;;;;;;5110336;28;20453;-62
2021/06/18 05:14:04;;;;;;;6.57;6.07;;;;;;;;;;5112051;28;20471;-64
2021/06/18 05:16:32;;;;;;;6.50;6.00;;;;;;;;;;5104357;28;20442;-62
2021/06/18 05:18:59;;;;;;;6.07;5.67;;;;;;;;;;5094571;28;20457;-62
2021/06/18 05:21:26;;;;;;;6.73;5.80;;;;;;;;;;5112102;28;20540;-64
2021/06/18 05:23:53;;;;;;;7.07;6.00;;;;;;;;;;5112047;28;20481;-62
2021/06/18 05:26:20;;;;;;;6.70;6.20;;;;;;;;;;5110146;28;20444;-63
2021/06/18 05:28:47;;;;;;;7.77;7.00;;;;;;;;;;5091617;28;20442;-63
2021/06/18 05:31:15;;;;;;;7.70;6.50;;;;;;;;;;5091584;28;20790;-64
2021/06/18 05:33:43;;;;;;;6.63;6.07;;;;;;;;;;5108463;28;20492;-63
2021/06/18 05:36:10;;;;;;;7.00;6.30;;;;;;;;;;5090759;28;20824;-63
2021/06/18 05:38:37;;;;;;;10.40;9.10;;;;;;;;;;5100545;28;20457;-63
2021/06/18 05:41:04;;;;;;;12.10;11.30;;;;;;;;;;5111692;28;20449;-62
2021/06/18 05:43:31;;;;;;;11.27;10.40;;;;;;;;;;5094392;28;21022;-69
2021/06/18 05:45:58;;;;;;;10.70;9.83;;;;;;;;;;5090812;28;20448;-65
2021/06/18 05:48:27;;;;;;;8.10;7.50;;;;;;;;;;5091647;28;20454;-63
2021/06/18 05:50:54;;;;;;;8.67;6.97;;;;;;;;;;5092286;28;20783;-63
2021/06/18 05:53:22;;;;;;;8.87;8.03;;;;;;;;;;5093653;28;20835;-66
2021/06/18 05:55:49;;;;;;;10.43;6.50;;;;;;;;;;5100180;28;20456;-63
2021/06/18 05:58:16;;;;;;;7.40;6.73;;;;;;;;;;5116051;28;20445;-63
2021/06/18 06:00:44;;;;;;;9.20;6.83;;;;;;;;;;5110077;28;20457;-64
2021/06/18 06:03:12;;;;;;;9.17;8.37;;;;;;;;;;5095612;28;20470;-65
2021/06/18 06:05:40;;;;;;;9.60;8.33;;;;;;;;;;5097006;28;21012;-63
2021/06/18 06:08:10;;;;;;;9.87;9.17;;;;;;;;;;5115935;28;20447;-63
2021/06/18 06:10:37;;;;;;;9.17;8.20;;;;;;;;;;5112938;28;21736;-63
2021/06/18 06:13:04;;;;;;;10.10;9.20;;;;;;;;;;5095854;28;20975;-64
2021/06/18 06:15:31;;;;;;;8.20;7.40;;;;;;;;;;5115299;28;20472;-66
2021/06/18 06:17:58;;;;;;;9.53;8.73;;;;;;;;;;5114944;28;20444;-64
2021/06/18 06:20:25;;;;;;;8.07;7.37;;;;;;;;;;5115974;28;20453;-66
2021/06/18 06:22:54;;;;;;;8.70;8.00;;;;;;;;;;5114894;28;20469;-64
2021/06/18 06:25:21;;;;;;;9.27;8.43;;;;;;;;;;5099115;28;21000;-64
2021/06/18 06:27:48;;;;;;;8.73;7.93;;;;;;;;;;5094888;28;20450;-64
2021/06/18 06:30:16;;;;;;;8.10;7.60;;;;;;;;;;5095821;28;20461;-64
2021/06/18 06:32:43;;;;;;;8.87;8.03;;;;;;;;;;5094755;28;20981;-64
2021/06/18 06:35:11;;;;;;;8.20;7.50;;;;;;;;;;5095219;28;20442;-67
2021/06/18 06:37:38;;;;;;;8.73;7.90;;;;;;;;;;5094818;28;20448;-65
2021/06/18 06:40:07;;;;;;;13.67;8.60;;;;;;;;;;5094334;28;20449;-64
2021/06/18 06:42:34;;;;;;;11.70;7.90;;;;;;;;;;5094447;28;20994;-64
2021/06/18 06:45:01;;;;;;;10.13;8.70;;;;;;;;;;5094604;28;21128;-64
2021/06/18 06:47:29;;;;;;;9.13;8.07;;;;;;;;;;5094345;28;20460;-64
2021/06/18 06:49:56;;;;;;;10.47;8.90;;;;;;;;;;5095081;28;20450;-63
2021/06/18 06:52:23;;;;;;;8.70;7.77;;;;;;;;;;5094451;28;20481;-64
2021/06/18 06:54:50;;;;;;;8.90;8.20;;;;;;;;;;5094582;28;20422;-67
2021/06/18 06:57:20;;;;;;;8.43;7.63;;;;;;;;;;5094159;28;20453;-64
2021/06/18 06:59:47;;;;;;;7.50;6.80;;;;;;;;;;5094505;28;20457;-64
2021/06/18 07:02:15;;;;;;;8.20;7.50;;;;;;;;;;5094320;28;20469;-65
2021/06/18 07:04:42;;;;;;;6.80;6.10;;;;;;;;;;5094117;28;20474;-64
2021/06/18 07:07:10;;;;;;;9.10;8.20;;;;;;;;;;5093527;28;20936;-64
2021/06/18 07:09:39;;;;;;;6.93;6.43;;;;;;;;;;5094432;28;20454;-64
2021/06/18 07:12:06;;;;;;;7.30;6.70;;;;;;;;;;5094486;28;20450;-66
2021/06/18 07:14:36;;;;;;;9.97;7.40;;;;;;;;;;5094481;28;20438;-64
2021/06/18 07:17:04;;;;;;;7.57;6.97;;;;;;;;;;5093970;28;20434;-64
2021/06/18 07:19:31;;;;;;;7.87;7.10;;;;;;;;;;5094352;28;20533;-65
2021/06/18 07:21:58;;;;;;;7.27;6.67;;;;;;;;;;5094276;28;20453;-64
2021/06/18 07:24:25;;;;;;;7.60;6.80;;;;;;;;;;5094116;28;20486;-65
2021/06/18 07:26:52;;;;;;;10.93;7.77;;;;;;;;;;5093335;28;20442;-64
2021/06/18 07:29:19;;;;;;;8.07;7.30;;;;;;;;;;5093968;28;20951;-64
2021/06/18 07:31:48;;;;;;;7.10;6.60;;;;;;;;;;5094123;28;20736;-64
2021/06/18 07:34:15;;;;;;;7.93;7.13;;;;;;;;;;5093814;28;20474;-65
2021/06/18 07:36:42;;;;;;;9.73;6.90;;;;;;;;;;5093073;28;20979;-64
2021/06/18 07:39:09;;;;;;;7.23;6.70;;;;;;;;;;5093639;28;20937;-65
2021/06/18 07:41:37;;;;;;;7.23;6.63;;;;;;;;;;5094022;28;20477;-64
2021/06/18 07:44:05;;;;;;;7.30;6.60;;;;;;;;;;5093592;28;20474;-64
2021/06/18 07:46:32;;;;;;;7.90;7.20;;;;;;;;;;5092679;28;20450;-64
2021/06/18 07:49:00;;;;;;;6.83;6.33;;;;;;;;;;5093894;28;20843;-64
2021/06/18 07:51:27;;;;;;;7.30;6.60;;;;;;;;;;5093523;28;20945;-65
2021/06/18 07:53:55;;;;;;;7.30;6.60;;;;;;;;;;5093042;28;20486;-65
2021/06/18 07:56:25;;;;;;;7.60;6.90;;;;;;;;;;5092458;28;20457;-65
2021/06/18 07:58:52;;;;;;;8.07;6.53;;;;;;;;;;5093552;28;20430;-64
2021/06/18 08:01:19;;;;;;;7.67;7.07;;;;;;;;;;5093472;28;20456;-64
2021/06/18 08:03:47;;;;;;;7.67;6.97;;;;;;;;;;5093338;28;20462;-64
2021/06/18 08:06:16;;;;;;;6.40;5.80;;;;;;;;;;5092197;28;20828;-65
2021/06/18 08:08:44;;;;;;;7.07;6.57;;;;;;;;;;5093114;28;20936;-64
2021/06/18 08:11:11;;;;;;;6.90;6.30;;;;;;;;;;5092974;28;20955;-65
2021/06/18 08:13:38;;;;;;;6.90;6.13;;;;;;;;;;5093100;28;20472;-67
2021/06/18 08:16:05;;;;;;;7.00;6.30;;;;;;;;;;5091875;28;20433;-71
2021/06/18 08:18:34;;;;;;;7.50;6.63;;;;;;;;;;5093171;28;20445;-65
2021/06/18 08:21:02;;;;;;;6.87;6.27;;;;;;;;;;5092952;28;20823;-64
2021/06/18 08:23:30;;;;;;;10.27;6.60;;;;;;;;;;5093066;28;20480;-65
2021/06/18 08:25:57;;;;;;;7.47;6.00;;;;;;;;;;5091979;28;20674;-64
2021/06/18 08:28:25;;;;;;;6.87;6.27;;;;;;;;;;5092382;28;20953;-65
2021/06/18 08:30:52;;;;;;;6.37;5.87;;;;;;;;;;5092546;28;20450;-64
2021/06/18 08:33:19;;;;;;;6.90;6.13;;;;;;;;;;5092877;28;20466;-65
2021/06/18 08:35:46;;;;;;;6.03;5.43;;;;;;;;;;5092146;28;20445;-65
2021/06/18 08:38:14;;;;;;;6.40;5.80;;;;;;;;;;5092671;28;20445;-65
2021/06/18 08:40:42;;;;;;;6.70;6.10;;;;;;;;;;5092340;28;20453;-65
2021/06/18 08:43:10;;;;;;;7.13;6.43;;;;;;;;;;5092604;28;20479;-65
2021/06/18 08:45:37;;;;;;;7.43;5.70;;;;;;;;;;5091739;28;20491;-65
2021/06/18 08:48:04;;;;;;;6.50;5.80;;;;;;;;;;5092625;28;20471;-65
2021/06/18 08:50:32;;;;;;;7.13;6.10;;;;;;;;;;5092330;28;20448;-65
2021/06/18 08:53:00;;;;;;;6.30;5.67;;;;;;;;;;5092034;28;20483;-68
2021/06/18 08:55:28;;;;;;;9.33;6.20;;;;;;;;;;5091687;28;20448;-65
2021/06/18 08:57:59;;;;;;;5.57;5.07;;;;;;;;;;5092094;28;20947;-67
2021/06/18 09:00:27;;;;;;;5.97;5.37;;;;;;;;;;5092552;28;20524;-65
2021/06/18 09:02:55;;;;;;;5.50;5.00;;;;;;;;;;5092348;28;20465;-65
2021/06/18 09:05:22;;;;;;;7.10;5.50;;;;;;;;;;5091990;28;20484;-65
2021/06/18 09:07:50;;;;;;;5.33;4.90;;;;;;;;;;5091837;28;20453;-68
2021/06/18 09:10:24;;;;;;;7.80;5.10;;;;;;;;;;5092727;28;20468;-66
2021/06/18 09:13:09;;;;;;;9.50;5.10;;;;;;;;;;5092270;28;20467;-65
2021/06/18 09:15:36;;;;;;;5.83;5.40;;;;;;;;;;5091455;28;20449;-65
2021/06/18 09:18:18;;;;;;;6.90;6.07;;;;;;;;;;5092040;28;20795;-66
2021/06/18 09:20:45;;;;;;;7.93;5.50;;;;;;;;;;5091712;28;20449;-68
2021/06/18 09:23:20;;;;;;;7.73;5.30;;;;;;;;;;5092085;28;20829;-65
2021/06/18 09:25:47;;;;;;;6.33;4.77;;;;;;;;;;5091468;28;20483;-68
2021/06/18 09:28:16;;;;;;;5.63;5.23;;;;;;;;;;5091975;28;20203;-65
2021/06/18 09:30:43;;;;;;;6.13;5.30;;;;;;;;;;5091953;28;20455;-66
2021/06/18 09:33:19;;;;;;;7.80;5.67;;;;;;;;;;5091589;28;20980;-66
2021/06/18 09:36:02;;;;;;;6.20;5.03;;;;;;;;;;5091444;28;20562;-66
2021/06/18 09:38:40;;;;;;;7.20;5.80;;;;;;;;;;5091836;28;20442;-65
2021/06/18 09:41:08;;;;;;;7.90;5.40;;;;;;;;;;5091954;28;20266;-65
2021/06/18 09:43:45;;;;;;;5.00;4.60;;;;;;;;;;5091821;28;20843;-65
2021/06/18 09:46:12;;;;;;;5.93;5.23;;;;;;;;;;5091753;28;20219;-69
2021/06/18 09:48:39;;;;;;;4.95;4.40;;;;;;;;;;5091906;28;20551;-68
2021/06/18 09:51:06;;;;;;;6.13;4.60;;;;;;;;;;5092114;28;20261;-67
2021/06/18 09:53:34;;;;;;;6.33;5.07;;;;;;;;;;5091214;28;20636;-67
2021/06/18 09:56:03;;;;;;;5.35;4.85;;;;;;;;;;5091256;28;20210;-68
2021/06/18 09:58:34;;;;;;;7.05;4.75;;;;;;;;;;5092156;28;20674;-68
2021/06/18 10:01:15;;;;;;;5.90;5.30;;;;;;;;;;5092286;28;20207;-68
2021/06/18 10:03:57;;;;;;;9.20;5.00;;;;;;;;;;5091540;28;20222;-67
2021/06/18 10:06:24;;;;;;;5.27;4.80;;;;;;;;;;5091597;28;20488;-68
2021/06/18 10:08:52;;;;;;;5.40;4.90;;;;;;;;;;5091927;28;20445;-67
2021/06/18 10:11:19;;;;;;;5.90;5.30;;;;;;;;;;5091370;28;20444;-68
2021/06/18 10:13:47;;;;;;;7.30;6.13;;;;;;;;;;5091588;28;20469;-66
2021/06/18 10:16:18;;;;;;;6.37;4.90;;;;;;;;;;5091171;28;20437;-68
2021/06/18 10:18:45;;;;;;;6.50;5.40;;;;;;;;;;5091952;28;20433;-65
2021/06/18 10:21:12;;;;;;;6.27;5.30;;;;;;;;;;5091787;28;20933;-68
2021/06/18 10:23:40;;;;;;;4.80;4.43;;;;;;;;;;5091295;28;20227;-67
2021/06/18 10:26:09;;;;;;;4.90;4.47;;;;;;;;;;5090401;28;20223;-68
2021/06/18 10:28:36;;;;;;;5.00;4.57;;;;;;;;;;5091233;28;20211;-68
2021/06/18 10:31:04;;;;;;;4.50;4.10;;;;;;;;;;5091098;28;20677;-68
2021/06/18 10:33:33;;;;;;;4.47;4.07;;;;;;;;;;5091462;28;20231;-68
2021/06/18 10:36:02;;;;;;;7.80;5.13;;;;;;;;;;5090690;28;20214;-68
2021/06/18 10:38:31;;;;;;;4.82;4.43;;;;;;;;;;5091943;28;20693;-67
2021/06/18 10:41:00;;;;;;;5.60;5.10;;;;;;;;;;5095526;28;20628;-68
2021/06/18 10:43:34;;;;;;;5.05;4.75;;;;;;;;;;5095017;28;20280;-68
2021/06/18 10:46:19;;;;;;;5.55;5.00;;;;;;;;;;5094317;28;20229;-68
2021/06/18 10:48:57;;;;;;;5.72;4.80;;;;;;;;;;5095214;28;20222;-68
2021/06/18 10:51:33;;;;;;;5.32;4.47;;;;;;;;;;5095126;28;20210;-68
2021/06/18 10:54:02;;;;;;;5.13;4.73;;;;;;;;;;5094677;28;20260;-67
2021/06/18 10:56:44;;;;;;;6.18;4.93;;;;;;;;;;5093973;28;20667;-69
2021/06/18 10:59:12;;;;;;;5.43;5.03;;;;;;;;;;5094909;28;20200;-69
2021/06/18 11:01:40;;;;;;;5.60;5.18;;;;;;;;;;5094766;28;20719;-69
2021/06/18 11:04:09;;;;;;;5.10;4.70;;;;;;;;;;5094063;28;20249;-68
2021/06/18 11:06:45;;;;;;;4.87;4.47;;;;;;;;;;5094031;28;20230;-68
2021/06/18 11:09:12;;;;;;;5.17;4.77;;;;;;;;;;5094853;28;20335;-69
2021/06/18 11:11:39;;;;;;;6.70;4.78;;;;;;;;;;5094772;28;20211;-69
2021/06/18 11:14:07;;;;;;;6.68;5.63;;;;;;;;;;5094548;28;20249;-68
2021/06/18 11:16:36;;;;;;;6.60;6.07;;;;;;;;;;5093598;28;20579;-69
2021/06/18 11:19:23;;;;;;;6.78;5.57;;;;;;;;;;5093916;28;20645;-71
2021/06/18 11:21:50;;;;;;;16.08;6.80;;;;;;;;;;5094500;28;20207;-69
2021/06/18 11:24:32;;;;;;;6.25;5.75;;;;;;;;;;5094310;28;20246;-69
2021/06/18 11:27:14;;;;;;;7.15;6.28;;;;;;;;;;5093547;28;20207;-68
2021/06/18 11:29:41;;;;;;;6.57;5.63;;;;;;;;;;5094304;28;20211;-69
2021/06/18 11:32:28;;;;;;;7.70;6.15;;;;;;;;;;5093941;28;20229;-70
2021/06/18 11:34:56;;;;;;;6.75;6.05;;;;;;;;;;5093985;28;20203;-69
2021/06/18 11:37:33;;;;;;;6.10;5.70;;;;;;;;;;5093340;28;20203;-69
2021/06/18 11:40:06;;;;;;;6.60;5.90;;;;;;;;;;5093817;28;20669;-69
2021/06/18 11:42:39;;;;;;;6.15;5.65;;;;;;;;;;5093844;28;20234;-69
2021/06/18 11:45:06;;;;;;;6.10;5.60;;;;;;;;;;5093878;28;20200;-68
2021/06/18 11:47:34;;;;;;;6.70;6.20;;;;;;;;;;5093033;28;20289;-69
2021/06/18 11:50:03;;;;;;;6.07;5.47;;;;;;;;;;5092982;28;20203;-68
2021/06/18 11:52:30;;;;;;;6.80;6.03;;;;;;;;;;5094037;28;20227;-69
2021/06/18 11:54:59;;;;;;;8.70;5.73;;;;;;;;;;5094861;28;20433;-69
2021/06/18 11:57:27;;;;;;;5.53;5.03;;;;;;;;;;5093623;28;20203;-69
2021/06/18 11:59:55;;;;;;;5.88;5.25;;;;;;;;;;5093342;28;20203;-69
2021/06/18 12:02:24;;;;;;;4.87;4.53;;;;;;;;;;5093599;28;20223;-69
2021/06/18 12:05:18;;;;;;;4.93;4.53;;;;;;;;;;5093396;28;20203;-69
2021/06/18 12:07:46;;;;;;;5.73;4.80;;;;;;;;;;5093997;28;20184;-68
2021/06/18 12:10:24;;;;;;;5.33;4.93;;;;;;;;;;5093526;28;20205;-69
2021/06/18 12:12:53;;;;;;;8.00;5.37;;;;;;;;;;5093437;28;20867;-67
2021/06/18 12:15:24;;;;;;;5.50;5.00;;;;;;;;;;5093162;28;20506;-68
2021/06/18 12:17:52;;;;;;;6.00;5.60;;;;;;;;;;5093659;28;20429;-67
2021/06/18 12:20:23;;;;;;;6.33;5.83;;;;;;;;;;5093649;28;20441;-69
2021/06/18 12:22:51;;;;;;;6.53;6.03;;;;;;;;;;5093074;28;20461;-68
2021/06/18 12:25:19;;;;;;;6.20;5.70;;;;;;;;;;5092571;28;20434;-68
2021/06/18 12:27:46;;;;;;;7.07;6.27;;;;;;;;;;5093073;28;20498;-67
2021/06/18 12:30:15;;;;;;;6.03;5.47;;;;;;;;;;5093223;28;20879;-69
2021/06/18 12:32:42;;;;;;;6.13;5.63;;;;;;;;;;5092847;28;20841;-68
2021/06/18 12:35:11;;;;;;;5.97;5.57;;;;;;;;;;5093094;28;20445;-63
2021/06/18 12:37:39;;;;;;;6.23;5.73;;;;;;;;;;5092678;28;20441;-66
2021/06/18 12:40:09;;;;;;;6.33;5.87;;;;;;;;;;5093373;28;20456;-69
2021/06/18 12:42:40;;;;;;;6.10;5.60;;;;;;;;;;5093074;28;20227;-68
2021/06/18 12:45:10;;;;;;;6.10;5.50;;;;;;;;;;5092959;28;20426;-68
2021/06/18 12:47:38;;;;;;;6.20;5.80;;;;;;;;;;5092765;28;20485;-68
2021/06/18 12:50:24;;;;;;;6.50;5.87;;;;;;;;;;5092987;28;20445;-68
2021/06/18 12:52:52;;;;;;;6.03;5.60;;;;;;;;;;5092166;28;20479;-68
2021/06/18 12:55:26;;;;;;;7.07;6.50;;;;;;;;;;5092011;28;20485;-69
2021/06/18 12:58:08;;;;;;;6.57;6.10;;;;;;;;;;5092836;28;20516;-68
2021/06/18 13:00:40;;;;;;;6.87;6.20;;;;;;;;;;5089619;28;20476;-69
2021/06/18 13:03:07;;;;;;;7.07;5.63;;;;;;;;;;5092175;28;20504;-68
2021/06/18 13:05:34;;;;;;;6.27;5.87;;;;;;;;;;5091781;28;20445;-68
2021/06/18 13:08:08;;;;;;;6.73;6.33;;;;;;;;;;5093016;28;20441;-68
2021/06/18 13:10:39;;;;;;;6.20;5.73;;;;;;;;;;5092493;28;20454;-66
2021/06/18 13:13:06;;;;;;;6.60;6.03;;;;;;;;;;5092301;28;20465;-68
2021/06/18 13:15:33;;;;;;;7.33;6.83;;;;;;;;;;5091644;28;20904;-69
2021/06/18 13:18:02;;;;;;;7.50;6.90;;;;;;;;;;5092128;28;20971;-68
2021/06/18 13:20:30;;;;;;;6.30;5.80;;;;;;;;;;5092405;28;20449;-68
2021/06/18 13:22:57;;;;;;;7.13;6.67;;;;;;;;;;5092108;28;21004;-69
2021/06/18 13:25:28;;;;;;;6.93;6.33;;;;;;;;;;5091597;28;20441;-68
2021/06/18 13:28:01;;;;;;;7.53;6.63;;;;;;;;;;5092423;28;20469;-68
2021/06/18 13:30:29;;;;;;;6.07;5.57;;;;;;;;;;5091837;28;20923;-68
2021/06/18 13:32:57;;;;;;;6.57;5.97;;;;;;;;;;5092175;28;20469;-68
2021/06/18 13:35:25;;;;;;;6.30;5.90;;;;;;;;;;5091473;28;20577;-68
2021/06/18 13:37:58;;;;;;;7.17;6.57;;;;;;;;;;5091570;28;20824;-68
2021/06/18 13:40:32;;;;;;;6.70;6.10;;;;;;;;;;5091921;28;20211;-68
2021/06/18 13:43:01;;;;;;;6.80;6.20;;;;;;;;;;5091609;28;20468;-68
2021/06/18 13:45:28;;;;;;;6.23;5.73;;;;;;;;;;5091167;28;20949;-69
2021/06/18 13:47:58;;;;;;;5.93;5.50;;;;;;;;;;5091962;28;20485;-68
2021/06/18 13:50:25;;;;;;;6.93;6.33;;;;;;;;;;5091967;28;20469;-69
2021/06/18 13:52:53;;;;;;;8.17;6.53;;;;;;;;;;5092046;28;20477;-69
2021/06/18 13:55:20;;;;;;;7.37;6.77;;;;;;;;;;5090830;28;20445;-68
2021/06/18 13:57:47;;;;;;;7.33;6.73;;;;;;;;;;5091780;28;20819;-69
2021/06/18 14:00:16;;;;;;;6.90;6.40;;;;;;;;;;5091863;28;20456;-68
2021/06/18 14:02:44;;;;;;;7.33;6.90;;;;;;;;;;5091447;28;20461;-68
2021/06/18 14:05:11;;;;;;;7.47;7.00;;;;;;;;;;5091325;28;20813;-68
2021/06/18 14:07:38;;;;;;;6.53;6.03;;;;;;;;;;5091155;28;20854;-67
2021/06/18 14:10:06;;;;;;;7.23;6.73;;;;;;;;;;5091473;28;20531;-68
2021/06/18 14:12:34;;;;;;;8.13;6.40;;;;;;;;;;5091445;28;20834;-67
2021/06/18 14:15:08;;;;;;;6.70;6.10;;;;;;;;;;5095109;28;20457;-67
2021/06/18 14:17:37;;;;;;;7.67;7.07;;;;;;;;;;5095261;28;20465;-67
2021/06/18 14:20:05;;;;;;;6.60;6.10;;;;;;;;;;5095891;28;20495;-68
2021/06/18 14:22:32;;;;;;;6.67;6.17;;;;;;;;;;5095114;28;20465;-67
2021/06/18 14:25:00;;;;;;;7.20;6.50;;;;;;;;;;5095483;28;20464;-68
2021/06/18 14:27:27;;;;;;;7.47;6.77;;;;;;;;;;5094345;28;21034;-67
2021/06/18 14:29:54;;;;;;;7.63;7.13;;;;;;;;;;5095408;28;20451;-68
2021/06/18 14:32:21;;;;;;;8.63;7.73;;;;;;;;;;5095442;28;20475;-67
2021/06/18 14:34:49;;;;;;;8.90;7.57;;;;;;;;;;5095082;28;20955;-68
2021/06/18 14:37:17;;;;;;;8.63;8.03;;;;;;;;;;5094155;28;20448;-68
2021/06/18 14:39:44;;;;;;;7.80;7.30;;;;;;;;;;5095061;28;20449;-68
2021/06/18 14:42:11;;;;;;;7.87;7.10;;;;;;;;;;5095057;28;20449;-66
2021/06/18 14:44:38;;;;;;;7.70;7.20;;;;;;;;;;5095074;28;20445;-68
2021/06/18 14:47:06;;;;;;;8.50;7.40;;;;;;;;;;5094338;28;20484;-68
2021/06/18 14:49:33;;;;;;;8.50;7.90;;;;;;;;;;5094852;28;20445;-68
2021/06/18 14:52:01;;;;;;;7.87;7.27;;;;;;;;;;5094673;28;20448;-67